createdAt,value
2023-12-11T00:00:54.512Z,4.41
2023-12-11T00:06:18.367Z,4.42
2023-12-11T00:11:25.619Z,4.43
2023-12-11T00:16:32.809Z,4.42
2023-12-11T00:21:40.025Z,4.40
2023-12-11T00:26:47.627Z,4.38
2023-12-11T00:31:54.820Z,4.39
2023-12-11T00:37:02.994Z,4.41
2023-12-11T00:42:10.378Z,4.41
2023-12-11T00:47:17.654Z,4.38
2023-12-11T00:52:24.842Z,4.39
2023-12-11T00:57:32.438Z,4.38
2023-12-11T01:02:39.761Z,4.39
2023-12-11T01:07:46.786Z,4.39
2023-12-11T01:12:54.178Z,4.41
2023-12-11T01:18:01.476Z,4.36
2023-12-11T01:23:08.913Z,4.39
2023-12-11T01:28:16.240Z,4.39
2023-12-11T01:33:23.700Z,4.40
2023-12-11T01:38:30.816Z,4.37
2023-12-11T01:43:38.414Z,4.38
2023-12-11T01:48:45.943Z,4.40
2023-12-11T01:53:53.480Z,4.39
2023-12-11T01:59:00.695Z,4.39
2023-12-11T02:04:10.398Z,4.38
2023-12-11T02:09:18.816Z,4.38
2023-12-11T02:14:26.024Z,4.40
2023-12-11T02:19:33.258Z,4.38
2023-12-11T02:24:42.686Z,4.39
2023-12-11T02:29:52.085Z,4.40
2023-12-11T02:34:59.586Z,4.39
2023-12-11T02:40:07.671Z,4.39
2023-12-11T02:45:15.081Z,4.38
2023-12-11T02:50:22.050Z,4.38
2023-12-11T02:55:29.063Z,4.38
2023-12-11T03:00:37.499Z,4.39
2023-12-11T03:05:44.814Z,4.37
2023-12-11T03:10:51.893Z,4.37
2023-12-11T03:15:59.226Z,4.37
2023-12-11T03:21:06.569Z,4.36
2023-12-11T03:26:13.620Z,4.36
2023-12-11T03:31:20.703Z,4.36
2023-12-11T03:36:27.546Z,4.38
2023-12-11T03:41:34.690Z,4.37
2023-12-11T03:46:41.754Z,4.38
2023-12-11T03:51:49.309Z,4.37
2023-12-11T03:56:56.617Z,4.38
2023-12-11T04:02:03.750Z,4.35
2023-12-11T04:07:10.808Z,4.39
2023-12-11T04:12:17.948Z,4.36
2023-12-11T04:17:25.308Z,4.37
2023-12-11T04:22:32.738Z,4.39
2023-12-11T04:27:40.306Z,4.36
2023-12-11T04:32:47.819Z,4.37
2023-12-11T04:37:55.364Z,4.36
2023-12-11T04:43:02.437Z,4.37
2023-12-11T04:48:09.835Z,4.37
2023-12-11T04:53:16.835Z,4.37
2023-12-11T04:58:24.124Z,4.37
2023-12-11T05:03:31.112Z,4.35
2023-12-11T05:08:38.817Z,4.37
2023-12-11T05:13:45.932Z,4.35
2023-12-11T05:18:53.026Z,4.35
2023-12-11T05:24:00.188Z,4.37
2023-12-11T05:29:07.310Z,4.37
2023-12-11T05:34:14.611Z,4.34
2023-12-11T05:39:21.912Z,4.35
2023-12-11T05:44:29.326Z,4.36
2023-12-11T05:49:36.774Z,4.34
2023-12-11T05:54:44.202Z,4.35
2023-12-11T05:59:51.476Z,4.36
2023-12-11T06:04:59.204Z,4.33
2023-12-11T06:10:07.253Z,4.36
2023-12-11T06:15:15.051Z,4.37
2023-12-11T06:20:22.343Z,4.34
2023-12-11T06:25:29.588Z,4.33
2023-12-11T06:30:37.027Z,4.32
2023-12-11T06:35:44.229Z,4.33
2023-12-11T06:40:51.548Z,4.34
2023-12-11T06:45:58.875Z,4.34
2023-12-11T06:51:06.363Z,4.34
2023-12-11T06:56:19.345Z,4.35
2023-12-11T07:01:28.668Z,4.36
2023-12-11T07:06:36.196Z,4.35
2023-12-11T07:11:43.572Z,4.34
2023-12-11T07:16:50.570Z,4.35
2023-12-11T07:21:57.892Z,4.37
2023-12-11T07:27:05.145Z,4.34
2023-12-11T07:32:12.432Z,4.35
2023-12-11T07:37:19.611Z,4.33
2023-12-11T07:42:26.729Z,4.34
2023-12-11T07:47:34.380Z,4.32
2023-12-11T07:52:42.652Z,4.31
2023-12-11T07:57:50.427Z,4.31
2023-12-11T08:02:57.810Z,4.31
2023-12-11T08:08:05.224Z,4.30
2023-12-11T08:13:12.584Z,4.32
2023-12-11T08:18:19.651Z,4.31
2023-12-11T08:23:26.653Z,4.30
2023-12-11T08:28:33.796Z,4.29
2023-12-11T08:33:41.306Z,4.29
2023-12-11T08:38:48.606Z,4.31
2023-12-11T08:43:55.457Z,4.30
2023-12-11T08:49:02.604Z,4.31
2023-12-11T08:54:09.926Z,4.32
2023-12-11T08:59:17.691Z,4.31
2023-12-11T09:04:24.852Z,4.33
2023-12-11T09:09:31.926Z,4.35
2023-12-11T09:14:39.058Z,4.36
2023-12-11T09:19:54.475Z,4.35
2023-12-11T09:25:03.366Z,4.40
2023-12-11T09:30:12.497Z,4.40
2023-12-11T09:35:19.998Z,4.40
2023-12-11T09:40:27.065Z,4.38
2023-12-11T09:45:34.535Z,4.39
2023-12-11T09:50:42.007Z,4.38
2023-12-11T09:55:49.367Z,4.39
2023-12-11T10:01:02.917Z,4.38
2023-12-11T10:06:10.615Z,4.39
2023-12-11T10:11:19.571Z,4.41
2023-12-11T10:16:33.768Z,4.39
2023-12-11T10:21:41.988Z,4.38
2023-12-11T10:26:49.998Z,4.39
2023-12-11T10:32:03.932Z,4.40
2023-12-11T10:37:15.209Z,4.41
2023-12-11T10:42:22.819Z,4.42
2023-12-11T10:47:35.891Z,4.48
2023-12-11T10:52:44.258Z,4.52
2023-12-11T10:57:52.377Z,4.60
2023-12-11T11:03:00.091Z,4.62
2023-12-11T11:08:13.053Z,4.65
2023-12-11T11:13:22.639Z,4.65
2023-12-11T11:18:29.728Z,4.65
2023-12-11T11:23:43.932Z,4.64
2023-12-11T11:28:52.400Z,4.65
2023-12-11T11:34:00.520Z,4.67
2023-12-11T11:39:08.134Z,4.69
2023-12-11T11:44:29.000Z,4.76
2023-12-11T11:49:37.088Z,4.77
2023-12-11T11:54:45.756Z,4.75
2023-12-11T12:15:17.450Z,5.18
2023-12-11T12:20:24.725Z,4.91
2023-12-11T12:25:32.094Z,4.89
2023-12-11T12:30:40.533Z,4.83
2023-12-11T12:35:50.277Z,4.88
2023-12-11T12:40:57.545Z,4.93
2023-12-11T12:46:04.682Z,4.97
2023-12-11T12:51:12.654Z,5.03
2023-12-11T12:56:20.766Z,5.09
2023-12-11T13:01:30.775Z,5.17
2023-12-11T13:06:38.198Z,5.25
2023-12-11T13:11:47.013Z,5.31
2023-12-11T13:16:54.774Z,5.39
2023-12-11T13:22:02.137Z,5.45
2023-12-11T13:27:09.389Z,5.55
2023-12-11T13:32:16.992Z,5.62
2023-12-11T13:37:24.223Z,5.69
2023-12-11T13:42:31.403Z,5.73
2023-12-11T13:47:40.118Z,5.79
2023-12-11T13:52:47.352Z,5.84
2023-12-11T13:57:54.566Z,5.90
2023-12-11T14:03:04.508Z,5.89
2023-12-11T14:08:14.928Z,5.91
2023-12-11T14:13:21.938Z,5.94
2023-12-11T14:18:31.665Z,5.99
2023-12-11T14:23:39.630Z,6.03
2023-12-11T14:28:46.866Z,6.11
2023-12-11T14:33:54.419Z,6.15
2023-12-11T14:39:02.088Z,6.22
2023-12-11T14:44:09.174Z,6.27
2023-12-11T14:49:16.264Z,6.32
2023-12-11T14:54:23.376Z,6.38
2023-12-11T14:59:30.389Z,6.43
2023-12-11T15:04:37.683Z,6.45
2023-12-11T15:09:44.687Z,6.49
2023-12-11T15:14:51.668Z,6.45
2023-12-11T15:19:59.066Z,6.48
2023-12-11T15:25:08.201Z,6.49
2023-12-11T15:30:15.853Z,6.55
2023-12-11T15:35:22.913Z,6.55
2023-12-11T15:40:30.255Z,6.55
2023-12-11T15:45:40.554Z,6.57
2023-12-11T15:50:48.180Z,6.59
2023-12-11T15:55:55.282Z,6.59
2023-12-11T16:01:02.587Z,6.59
2023-12-11T16:06:10.582Z,6.63
2023-12-11T16:11:17.963Z,6.64
2023-12-11T16:16:24.999Z,6.67
2023-12-11T16:21:32.241Z,6.71
2023-12-11T16:26:39.507Z,6.76
2023-12-11T16:31:46.739Z,6.80
2023-12-11T16:36:54.429Z,6.83
2023-12-11T16:42:01.450Z,6.87
2023-12-11T16:47:09.494Z,6.89
2023-12-11T16:52:16.728Z,6.94
2023-12-11T16:57:24.846Z,6.95
2023-12-11T17:02:33.521Z,6.97
2023-12-11T17:07:40.879Z,7.03
2023-12-11T17:12:48.054Z,7.07
2023-12-11T17:17:55.356Z,7.07
2023-12-11T17:23:02.402Z,7.08
2023-12-11T17:28:09.511Z,7.07
2023-12-11T17:33:16.782Z,7.11
2023-12-11T17:38:24.008Z,7.10
2023-12-11T17:43:31.412Z,7.13
2023-12-11T17:48:38.838Z,7.14
2023-12-11T17:53:46.129Z,7.16
2023-12-11T17:58:53.244Z,7.15
2023-12-11T18:04:00.667Z,7.16
2023-12-11T18:09:07.806Z,7.13
2023-12-11T18:14:15.012Z,7.11
2023-12-11T18:19:22.392Z,7.11
2023-12-11T18:24:29.538Z,7.10
2023-12-11T18:29:36.470Z,7.09
2023-12-11T18:34:52.037Z,7.11
2023-12-11T18:40:02.350Z,7.12
2023-12-11T18:45:10.345Z,7.10
2023-12-11T18:50:18.009Z,7.08
2023-12-11T18:55:25.537Z,7.09
2023-12-11T19:00:32.811Z,7.07
2023-12-11T19:05:39.968Z,7.08
2023-12-11T19:10:47.103Z,7.08
2023-12-11T19:15:54.723Z,7.08
2023-12-11T19:21:01.748Z,7.06
2023-12-11T19:26:10.796Z,7.07
2023-12-11T19:31:17.854Z,7.07
2023-12-11T19:36:25.410Z,7.08
2023-12-11T19:41:32.536Z,7.07
2023-12-11T19:46:44.754Z,7.08
2023-12-11T19:51:52.072Z,7.08
2023-12-11T19:56:59.134Z,7.07
2023-12-11T20:02:09.260Z,7.06
2023-12-11T20:07:17.048Z,7.08
2023-12-11T20:12:24.348Z,7.07
2023-12-11T20:17:31.815Z,7.09
2023-12-11T20:22:39.070Z,7.07
2023-12-11T20:27:46.051Z,7.07
2023-12-11T20:32:53.351Z,7.08
2023-12-11T20:38:00.819Z,7.06
2023-12-11T20:43:09.817Z,7.07
2023-12-11T20:48:17.321Z,7.09
2023-12-11T20:53:24.663Z,7.10
2023-12-11T20:58:31.923Z,7.10
2023-12-11T21:03:39.937Z,7.11
2023-12-11T21:08:47.386Z,7.11
2023-12-11T21:13:54.845Z,7.08
2023-12-11T21:19:02.523Z,7.09
2023-12-11T21:24:10.958Z,7.10
2023-12-11T21:29:17.928Z,7.08
2023-12-11T21:34:25.487Z,7.09
2023-12-11T21:39:32.728Z,7.10
2023-12-11T21:44:39.999Z,7.09
2023-12-11T21:49:48.071Z,7.10
2023-12-11T21:54:55.283Z,7.13
2023-12-11T22:00:02.372Z,7.11
2023-12-11T22:05:10.669Z,7.09
2023-12-11T22:10:17.776Z,7.11
2023-12-11T22:15:24.880Z,7.11
2023-12-11T22:20:31.755Z,7.10
2023-12-11T22:25:38.801Z,7.12
2023-12-11T22:30:45.881Z,7.13
2023-12-11T22:35:52.820Z,7.13
2023-12-11T22:41:00.360Z,7.12
2023-12-11T22:46:07.856Z,7.13
2023-12-11T22:51:14.891Z,7.14
2023-12-11T22:56:22.074Z,7.15
2023-12-11T23:01:34.091Z,7.15
2023-12-11T23:06:41.570Z,7.15
2023-12-11T23:11:48.671Z,7.16
2023-12-11T23:16:56.869Z,7.16
2023-12-11T23:22:04.487Z,7.16
2023-12-11T23:27:11.734Z,7.18
2023-12-11T23:32:19.814Z,7.17
2023-12-11T23:37:26.906Z,7.18
2023-12-11T23:42:35.857Z,7.17
2023-12-11T23:47:43.096Z,7.16
2023-12-11T23:52:50.090Z,7.17
2023-12-11T23:57:57.378Z,7.17
